Terminal Aerodrome Forecast
Issued by NWS Charleston, WV

Current Version | Previous Version | Graphics & Text | Print | Product List | Glossary On
Versions: 1 2 3 4 5 6 7 8 9 10 11 12 13 14 15 16 17 18 19 20 21 22 23 24
000
FTUS41 KRLX 241100
TAFEKN
TAF
KEKN 241120Z 2412/2512 20010KT P6SM SCT030
     FM241400 20013G21KT P6SM SCT100
     FM241700 21017G31KT P6SM SCT090
     FM250400 26010G23KT 4SM HZ BKN026=

USA.gov is the U.S. government's official web portal to all federal, state and local government web resources and services.